createdAt,value
2017-05-29T00:00:41.160Z,21.60
2017-05-29T00:10:39.029Z,21.45
2017-05-29T00:15:35.635Z,21.48
2017-05-29T00:20:31.983Z,21.35
2017-05-29T00:25:29.498Z,21.36
2017-05-29T00:30:27.945Z,21.25
2017-05-29T00:40:24.006Z,21.45
2017-05-29T00:45:21.327Z,21.51
2017-05-29T00:55:21.766Z,21.06
2017-05-29T01:00:17.905Z,21.11
2017-05-29T01:10:14.477Z,20.69
2017-05-29T01:15:11.249Z,20.70
2017-05-29T01:20:07.273Z,20.77
2017-05-29T01:25:03.940Z,20.52
2017-05-29T01:30:04.278Z,20.62
2017-05-29T01:45:02.805Z,20.32
2017-05-29T01:49:58.449Z,20.24
2017-05-29T01:54:58.227Z,20.24
2017-05-29T01:59:53.670Z,19.99
2017-05-29T02:30:02.804Z,20.18
2017-05-29T02:35:03.270Z,20.18
2017-05-29T02:50:09.383Z,19.95
2017-05-29T02:55:06.079Z,19.85
2017-05-29T03:00:04.193Z,19.82
2017-05-29T03:04:59.990Z,19.69
2017-05-29T03:09:57.769Z,19.54
2017-05-29T03:14:55.964Z,19.54
2017-05-29T03:19:52.886Z,19.71
2017-05-29T03:29:55.805Z,19.34
2017-05-29T03:34:51.319Z,18.83
2017-05-29T03:39:51.338Z,18.96
2017-05-29T03:44:46.783Z,19.02
2017-05-29T03:49:42.801Z,18.74
2017-05-29T03:54:38.856Z,18.63
2017-05-29T03:59:36.409Z,18.53
2017-05-29T04:04:33.529Z,18.53
2017-05-29T04:09:29.761Z,18.60
2017-05-29T04:14:27.649Z,18.86
2017-05-29T04:24:28.978Z,19.02
2017-05-29T04:29:27.564Z,19.40
2017-05-29T04:34:23.220Z,19.70
2017-05-29T04:39:20.068Z,19.88
2017-05-29T04:44:16.806Z,20.36
2017-05-29T04:49:13.798Z,20.62
2017-05-29T04:54:10.267Z,20.62
2017-05-29T04:59:09.088Z,20.75
2017-05-29T05:04:05.060Z,20.77
2017-05-29T05:09:01.319Z,20.56
2017-05-29T05:13:59.240Z,20.58
2017-05-29T05:18:55.876Z,20.80
2017-05-29T05:28:52.646Z,21.33
2017-05-29T05:33:49.400Z,21.57
2017-05-29T05:38:47.036Z,21.95
2017-05-29T05:43:43.218Z,22.15
2017-05-29T05:48:40.456Z,22.68
2017-05-29T05:53:38.370Z,22.15
2017-05-29T05:58:34.107Z,21.73
2017-05-29T06:03:31.064Z,21.72
2017-05-29T06:23:41.882Z,21.99
2017-05-29T06:28:37.456Z,22.11
2017-05-29T06:33:34.119Z,22.02
2017-05-29T06:38:31.391Z,21.99
2017-05-29T06:43:28.684Z,22.04
2017-05-29T06:48:25.291Z,22.14
2017-05-29T06:53:21.172Z,22.54
2017-05-29T06:58:17.131Z,22.48
2017-05-29T07:03:13.212Z,22.53
2017-05-29T07:13:12.014Z,23.02
2017-05-29T07:18:08.306Z,23.12
2017-05-29T07:28:10.938Z,23.06
2017-05-29T07:33:06.649Z,23.25
2017-05-29T07:38:03.551Z,23.31
2017-05-29T07:48:02.857Z,23.92
2017-05-29T07:53:02.436Z,24.43
2017-05-29T07:57:59.749Z,25.21
2017-05-29T08:02:57.121Z,25.13
2017-05-29T08:07:54.197Z,25.65
2017-05-29T08:12:54.000Z,26.07
2017-05-29T08:17:51.433Z,26.21
2017-05-29T08:22:47.508Z,26.02
2017-05-29T08:27:44.424Z,26.13
2017-05-29T08:32:42.319Z,26.13
2017-05-29T08:42:41.217Z,26.22
2017-05-29T08:47:38.107Z,26.18
2017-05-29T08:52:33.801Z,26.65
2017-05-29T08:57:32.988Z,26.97
2017-05-29T09:02:28.477Z,26.65
2017-05-29T09:07:24.386Z,26.33
2017-05-29T09:12:20.685Z,26.55
2017-05-29T09:17:16.423Z,26.88
2017-05-29T09:22:13.056Z,27.02
2017-05-29T09:27:09.510Z,26.99
2017-05-29T09:32:05.952Z,27.64
2017-05-29T09:37:02.701Z,27.48
2017-05-29T09:41:59.323Z,27.65
2017-05-29T09:46:55.321Z,28.12
2017-05-29T09:51:50.862Z,27.68
2017-05-29T09:56:49.668Z,27.33
2017-05-29T10:01:45.744Z,27.11
2017-05-29T10:06:42.112Z,27.82
2017-05-29T10:11:38.492Z,28.11
2017-05-29T10:16:35.362Z,28.62
2017-05-29T10:21:33.810Z,28.97
2017-05-29T10:26:31.074Z,28.88
2017-05-29T10:31:27.321Z,29.23
2017-05-29T10:36:23.980Z,29.05
2017-05-29T10:41:19.660Z,29.04
2017-05-29T10:46:15.910Z,29.24
2017-05-29T10:51:12.873Z,29.24
2017-05-29T10:56:09.416Z,29.75
2017-05-29T11:01:08.688Z,29.42
2017-05-29T11:06:04.013Z,29.23
2017-05-29T11:11:00.073Z,29.50
2017-05-29T11:15:56.450Z,30.00
2017-05-29T11:20:53.439Z,29.84
2017-05-29T11:25:50.159Z,30.34
2017-05-29T11:30:46.937Z,29.87
2017-05-29T11:35:43.866Z,30.37
2017-05-29T11:40:43.205Z,30.47
2017-05-29T11:45:39.105Z,30.73
2017-05-29T11:50:36.043Z,31.44
2017-05-29T11:55:32.706Z,31.69
2017-05-29T12:00:29.891Z,31.49
2017-05-29T12:05:25.582Z,31.52
2017-05-29T12:10:22.723Z,32.08
2017-05-29T12:15:18.867Z,32.07
2017-05-29T12:20:14.849Z,32.45
2017-05-29T12:25:09.718Z,32.33
2017-05-29T12:30:06.138Z,31.89
2017-05-29T12:35:02.306Z,31.44
2017-05-29T12:39:58.220Z,32.27
2017-05-29T12:44:54.594Z,32.33
2017-05-29T12:54:55.992Z,31.74
2017-05-29T12:59:51.495Z,31.93
2017-05-29T13:04:47.223Z,31.69
2017-05-29T13:09:42.791Z,32.26
2017-05-29T13:14:38.870Z,31.87
2017-05-29T13:19:34.856Z,31.25
2017-05-29T13:24:31.313Z,31.18
2017-05-29T13:29:26.996Z,31.21
2017-05-29T13:34:22.682Z,31.55
2017-05-29T13:39:19.762Z,32.27
2017-05-29T13:44:18.258Z,32.30
2017-05-29T13:49:14.058Z,32.34
2017-05-29T13:54:13.578Z,31.42
2017-05-29T13:59:08.499Z,31.37
2017-05-29T14:04:04.423Z,31.02
2017-05-29T14:08:59.886Z,30.96
2017-05-29T14:13:54.665Z,30.73
2017-05-29T14:18:51.787Z,30.96
2017-05-29T14:23:46.703Z,30.63
2017-05-29T14:28:42.185Z,30.72
2017-05-29T14:33:44.203Z,30.88
2017-05-29T14:38:38.886Z,30.92
2017-05-29T14:43:36.160Z,30.88
2017-05-29T14:48:31.584Z,30.99
2017-05-29T14:53:27.484Z,31.06
2017-05-29T14:58:23.382Z,31.12
2017-05-29T15:03:19.322Z,31.12
2017-05-29T15:08:15.338Z,31.39
2017-05-29T15:13:11.232Z,31.33
2017-05-29T15:18:08.569Z,31.34
2017-05-29T15:23:04.255Z,31.17
2017-05-29T15:28:00.382Z,31.37
2017-05-29T15:32:56.472Z,31.61
2017-05-29T15:37:52.573Z,31.58
2017-05-29T15:42:48.693Z,31.66
2017-05-29T15:47:44.575Z,31.85
2017-05-29T15:52:40.648Z,31.81
2017-05-29T15:57:37.007Z,31.70
2017-05-29T16:02:33.077Z,31.66
2017-05-29T16:07:31.546Z,31.94
2017-05-29T16:12:26.982Z,32.03
2017-05-29T16:17:24.084Z,31.90
2017-05-29T16:22:20.088Z,31.93
2017-05-29T16:27:16.878Z,31.94
2017-05-29T16:32:13.822Z,32.01
2017-05-29T16:37:09.748Z,32.00
2017-05-29T16:42:05.928Z,31.59
2017-05-29T16:47:02.811Z,31.73
2017-05-29T16:51:58.527Z,31.70
2017-05-29T16:56:54.523Z,31.78
2017-05-29T17:01:50.461Z,31.70
2017-05-29T17:06:49.416Z,31.66
2017-05-29T17:11:45.821Z,31.66
2017-05-29T17:16:41.785Z,31.66
2017-05-29T17:21:37.581Z,31.59
2017-05-29T17:26:36.711Z,31.55
2017-05-29T17:31:32.318Z,31.31
2017-05-29T17:36:28.111Z,31.22
2017-05-29T17:41:24.860Z,31.14
2017-05-29T17:46:23.203Z,30.99
2017-05-29T17:51:18.056Z,30.72
2017-05-29T17:56:13.921Z,30.62
2017-05-29T18:01:12.336Z,30.47
2017-05-29T18:06:07.897Z,30.37
2017-05-29T18:11:03.533Z,30.15
2017-05-29T18:16:00.088Z,29.93
2017-05-29T18:25:57.553Z,29.68
2017-05-29T18:30:52.771Z,29.51
2017-05-29T18:35:48.969Z,29.44
2017-05-29T18:40:45.579Z,29.29
2017-05-29T18:45:41.647Z,29.24
2017-05-29T18:50:37.415Z,29.31
2017-05-29T18:55:33.308Z,29.17
2017-05-29T19:00:29.523Z,29.02
2017-05-29T19:05:25.366Z,28.79
2017-05-29T19:10:21.573Z,28.75
2017-05-29T19:15:17.067Z,28.41
2017-05-29T19:20:16.464Z,28.14
2017-05-29T19:25:11.248Z,28.07
2017-05-29T19:30:07.752Z,27.92
2017-05-29T19:35:04.175Z,27.75
2017-05-29T19:39:59.715Z,27.67
2017-05-29T19:44:55.638Z,27.51
2017-05-29T19:49:52.748Z,27.39
2017-05-29T19:54:48.819Z,27.32
2017-05-29T19:59:44.662Z,27.30
2017-05-29T20:04:40.448Z,27.25
2017-05-29T20:09:36.478Z,27.20
2017-05-29T20:14:33.489Z,27.18
2017-05-29T20:19:29.211Z,27.17
2017-05-29T20:24:25.167Z,27.15
2017-05-29T20:29:21.009Z,27.18
2017-05-29T20:34:17.008Z,27.22
2017-05-29T20:39:12.820Z,27.07
2017-05-29T20:44:08.911Z,27.11
2017-05-29T20:49:05.035Z,27.03
2017-05-29T20:54:01.116Z,27.08
2017-05-29T20:58:57.438Z,26.96
2017-05-29T21:03:55.520Z,27.05
2017-05-29T21:08:51.224Z,27.08
2017-05-29T21:13:47.247Z,27.08
2017-05-29T21:18:43.466Z,26.92
2017-05-29T21:23:39.635Z,26.88
2017-05-29T21:28:36.441Z,26.84
2017-05-29T21:33:32.200Z,26.78
2017-05-29T21:38:29.958Z,26.65
2017-05-29T21:43:25.815Z,26.65
2017-05-29T21:48:23.320Z,26.56
2017-05-29T21:53:19.499Z,26.51
2017-05-29T21:58:15.538Z,26.48
2017-05-29T22:03:11.861Z,26.36
2017-05-29T22:08:07.910Z,26.33
2017-05-29T22:13:03.970Z,26.22
2017-05-29T22:18:04.093Z,26.25
2017-05-29T22:22:59.353Z,26.25
2017-05-29T22:27:58.427Z,26.10
2017-05-29T22:32:54.139Z,26.10
2017-05-29T22:37:53.861Z,26.06
2017-05-29T22:42:49.312Z,25.99
2017-05-29T22:47:49.479Z,25.93
2017-05-29T22:52:44.501Z,25.85
2017-05-29T22:57:40.726Z,25.90
2017-05-29T23:02:41.276Z,25.75
2017-05-29T23:07:36.566Z,25.60
2017-05-29T23:12:32.749Z,25.62
2017-05-29T23:17:32.499Z,25.46
2017-05-29T23:22:30.507Z,25.38
2017-05-29T23:27:27.795Z,25.33
2017-05-29T23:32:25.861Z,25.29
2017-05-29T23:37:21.103Z,25.32
2017-05-29T23:42:17.657Z,25.32
2017-05-29T23:47:13.542Z,25.31
2017-05-29T23:52:10.976Z,25.03
2017-05-29T23:57:10.476Z,24.95
